createdAt,value
2019-02-18T00:01:00.621Z,33.20
2019-02-18T00:03:28.637Z,34.47
2019-02-18T00:05:56.638Z,34.90
2019-02-18T00:08:24.641Z,35.67
2019-02-18T00:10:52.685Z,36.43
2019-02-18T00:13:20.674Z,38.47
2019-02-18T00:15:48.820Z,38.70
2019-02-18T00:18:16.874Z,39.67
2019-02-18T00:20:44.819Z,34.73
2019-02-18T00:23:12.781Z,34.13
2019-02-18T00:25:40.836Z,35.87
2019-02-18T00:28:08.771Z,35.40
2019-02-18T00:30:36.790Z,36.90
2019-02-18T00:33:04.724Z,36.07
2019-02-18T00:35:34.539Z,33.40
2019-02-18T00:38:02.494Z,33.90
2019-02-18T00:40:30.519Z,36.33
2019-02-18T00:42:58.477Z,36.83
2019-02-18T00:45:26.537Z,35.77
2019-02-18T00:47:54.455Z,31.67
2019-02-18T00:50:22.426Z,31.50
2019-02-18T00:52:50.385Z,35.37
2019-02-18T00:55:18.354Z,36.63
2019-02-18T00:57:46.373Z,34.63
2019-02-18T01:00:14.644Z,33.37
2019-02-18T01:02:42.654Z,34.83
2019-02-18T01:05:10.795Z,32.13
2019-02-18T01:07:38.778Z,37.60
2019-02-18T01:10:07.013Z,35.07
2019-02-18T01:12:35.036Z,36.47
2019-02-18T01:15:03.091Z,39.27
2019-02-18T01:17:32.859Z,35.93
2019-02-18T01:20:00.841Z,34.87
2019-02-18T01:22:28.862Z,36.23
2019-02-18T01:24:56.979Z,37.90
2019-02-18T01:27:26.547Z,36.93
2019-02-18T01:29:54.605Z,37.60
2019-02-18T01:32:22.539Z,36.20
2019-02-18T01:34:50.546Z,39.63
2019-02-18T01:37:18.547Z,37.60
2019-02-18T01:39:49.280Z,40.93
2019-02-18T01:42:17.246Z,37.17
2019-02-18T01:44:45.265Z,39.63
2019-02-18T01:47:13.236Z,40.10
2019-02-18T01:49:41.204Z,40.80
2019-02-18T01:52:09.190Z,41.70
2019-02-18T01:54:38.531Z,43.57
2019-02-18T01:57:07.628Z,40.87
2019-02-18T01:59:35.610Z,36.40
2019-02-18T02:02:03.559Z,37.87
2019-02-18T02:04:31.559Z,41.37
2019-02-18T02:06:59.546Z,37.20
2019-02-18T02:09:27.523Z,39.27
2019-02-18T02:11:55.498Z,37.50
2019-02-18T02:14:24.430Z,40.10
2019-02-18T02:16:52.434Z,39.93
2019-02-18T02:19:20.421Z,37.33
2019-02-18T02:21:48.468Z,41.90
2019-02-18T02:24:16.391Z,42.20
2019-02-18T02:26:44.386Z,39.30
2019-02-18T02:29:12.345Z,43.83
2019-02-18T02:31:40.292Z,42.13
2019-02-18T02:34:08.253Z,40.07
2019-02-18T02:36:36.371Z,45.70
2019-02-18T02:39:05.234Z,40.70
2019-02-18T02:41:33.164Z,39.93
2019-02-18T02:44:01.125Z,41.60
2019-02-18T02:46:29.114Z,40.83
2019-02-18T02:48:58.278Z,40.30
2019-02-18T02:51:26.242Z,44.80
2019-02-18T02:53:54.245Z,39.33
2019-02-18T02:56:22.236Z,37.80
2019-02-18T02:58:50.240Z,36.30
2019-02-18T03:01:18.501Z,40.57
2019-02-18T03:03:46.470Z,40.53
2019-02-18T03:06:14.425Z,37.93
2019-02-18T03:08:45.432Z,38.83
2019-02-18T03:11:13.127Z,35.10
2019-02-18T03:13:41.078Z,41.53
2019-02-18T03:16:09.046Z,44.33
2019-02-18T03:18:37.072Z,42.53
2019-02-18T03:21:05.090Z,39.13
2019-02-18T03:23:34.222Z,41.33
2019-02-18T03:26:02.196Z,38.90
2019-02-18T03:29:07.768Z,38.57
2019-02-18T03:31:35.735Z,39.03
2019-02-18T03:34:14.927Z,39.87
2019-02-18T03:36:42.987Z,39.13
2019-02-18T03:39:10.984Z,42.17
2019-02-18T03:41:41.013Z,39.47
2019-02-18T03:44:08.733Z,41.70
2019-02-18T03:46:36.840Z,41.23
2019-02-18T03:49:04.896Z,39.07
2019-02-18T03:51:32.938Z,37.43
2019-02-18T03:54:02.237Z,36.00
2019-02-18T03:56:30.295Z,38.93
2019-02-18T03:58:59.401Z,40.40
2019-02-18T04:01:28.341Z,41.70
2019-02-18T04:03:57.641Z,42.97
2019-02-18T04:06:26.764Z,38.67
2019-02-18T04:08:54.784Z,42.03
2019-02-18T04:11:22.806Z,42.40
2019-02-18T04:13:50.875Z,39.13
2019-02-18T04:16:18.826Z,43.03
2019-02-18T04:18:46.765Z,37.40
2019-02-18T04:21:14.789Z,39.73
2019-02-18T04:23:43.909Z,39.00
2019-02-18T04:26:11.981Z,39.97
2019-02-18T04:28:39.970Z,46.90
2019-02-18T04:31:08.948Z,38.70
2019-02-18T04:33:36.915Z,36.87
2019-02-18T04:36:04.888Z,42.97
2019-02-18T04:38:32.856Z,42.33
2019-02-18T04:41:00.918Z,41.00
2019-02-18T04:43:28.897Z,42.53
2019-02-18T04:45:56.848Z,42.37
2019-02-18T04:48:24.814Z,39.43
2019-02-18T04:50:54.172Z,39.27
2019-02-18T04:53:22.090Z,39.13
2019-02-18T04:55:50.141Z,44.20
2019-02-18T04:58:18.130Z,43.77
2019-02-18T05:00:46.134Z,40.60
2019-02-18T05:03:14.063Z,47.03
2019-02-18T05:05:43.606Z,46.53
2019-02-18T05:08:13.364Z,41.80
2019-02-18T05:10:41.361Z,42.73
2019-02-18T05:13:09.343Z,45.73
2019-02-18T05:15:37.324Z,42.37
2019-02-18T05:18:06.367Z,42.70
2019-02-18T05:20:36.135Z,45.50
2019-02-18T05:23:05.850Z,48.87
2019-02-18T05:25:34.824Z,40.40
2019-02-18T05:28:02.978Z,40.70
2019-02-18T05:30:32.504Z,41.30
2019-02-18T05:33:00.495Z,42.77
2019-02-18T05:35:28.441Z,42.37
2019-02-18T05:37:56.381Z,43.43
2019-02-18T05:40:24.403Z,42.83
2019-02-18T05:42:52.574Z,50.97
2019-02-18T05:45:20.533Z,50.77
2019-02-18T05:47:48.494Z,42.23
2019-02-18T05:50:16.482Z,50.53
2019-02-18T05:52:45.439Z,68.43
2019-02-18T05:55:13.370Z,49.23
2019-02-18T05:57:41.348Z,48.70
2019-02-18T06:00:10.070Z,41.50
2019-02-18T06:02:38.088Z,44.67
2019-02-18T06:05:06.535Z,47.10
2019-02-18T06:07:34.504Z,46.90
2019-02-18T06:10:02.469Z,45.00
2019-02-18T06:12:30.440Z,48.33
2019-02-18T06:14:58.423Z,47.35
2019-02-18T06:17:26.442Z,46.53
2019-02-18T06:19:54.438Z,41.47
2019-02-18T06:22:22.433Z,42.87
2019-02-18T06:24:50.406Z,47.03
2019-02-18T06:27:18.435Z,40.40
2019-02-18T06:29:49.652Z,42.57
2019-02-18T06:32:17.578Z,46.30
2019-02-18T06:34:45.639Z,43.25
2019-02-18T06:37:13.600Z,47.30
2019-02-18T06:39:42.116Z,38.60
2019-02-18T06:42:11.260Z,40.33
2019-02-18T06:45:07.405Z,42.83
2019-02-18T06:47:35.432Z,44.63
2019-02-18T06:50:03.574Z,39.20
2019-02-18T06:52:33.326Z,39.33
2019-02-18T06:55:01.559Z,43.60
2019-02-18T06:57:48.602Z,40.73
2019-02-18T07:00:28.446Z,43.07
2019-02-18T07:03:18.655Z,42.70
2019-02-18T07:05:55.428Z,47.80
2019-02-18T07:08:40.383Z,37.83
2019-02-18T07:11:21.668Z,40.33
2019-02-18T07:13:49.623Z,45.60
2019-02-18T07:16:17.756Z,42.27
2019-02-18T07:18:45.739Z,42.73
2019-02-18T07:21:13.760Z,38.63
2019-02-18T07:23:41.751Z,40.63
2019-02-18T07:26:09.721Z,38.47
2019-02-18T07:28:37.668Z,38.87
2019-02-18T07:31:05.648Z,39.07
2019-02-18T07:33:35.407Z,44.50
2019-02-18T07:36:03.432Z,41.50
2019-02-18T07:38:31.382Z,39.10
2019-02-18T07:40:59.354Z,41.13
2019-02-18T07:43:27.401Z,38.47
2019-02-18T07:45:55.288Z,35.87
2019-02-18T07:48:23.285Z,34.73
2019-02-18T07:50:52.601Z,36.57
2019-02-18T07:53:20.596Z,34.57
2019-02-18T07:55:48.546Z,37.30
2019-02-18T07:58:16.525Z,38.70
2019-02-18T08:00:45.392Z,33.70
2019-02-18T08:03:13.389Z,31.37
2019-02-18T08:05:42.119Z,33.63
2019-02-18T08:08:10.137Z,31.47
2019-02-18T08:10:39.143Z,35.97
2019-02-18T08:13:07.187Z,33.60
2019-02-18T08:15:37.596Z,33.77
2019-02-18T08:18:05.559Z,30.57
2019-02-18T08:20:33.627Z,34.47
2019-02-18T08:23:01.590Z,34.70
2019-02-18T08:25:29.607Z,35.70
2019-02-18T08:27:57.544Z,30.00
2019-02-18T08:30:25.682Z,39.27
2019-02-18T08:32:53.650Z,32.00
2019-02-18T08:35:21.688Z,32.53
2019-02-18T08:37:50.752Z,30.50
2019-02-18T08:40:22.355Z,36.53
2019-02-18T08:42:48.756Z,29.30
2019-02-18T08:45:16.710Z,28.63
2019-02-18T08:47:46.530Z,31.87
2019-02-18T08:50:14.482Z,27.97
2019-02-18T08:52:42.586Z,28.63
2019-02-18T08:55:11.345Z,36.20
2019-02-18T08:57:39.253Z,29.77
2019-02-18T09:00:09.585Z,28.67
2019-02-18T09:02:37.605Z,30.37
2019-02-18T09:05:05.739Z,31.10
2019-02-18T09:07:33.690Z,32.13
2019-02-18T09:10:01.674Z,30.30
2019-02-18T09:12:29.883Z,32.00
2019-02-18T09:15:01.435Z,31.57
2019-02-18T09:17:31.193Z,31.60
2019-02-18T09:19:59.126Z,29.47
2019-02-18T09:22:36.345Z,31.43
2019-02-18T09:25:14.377Z,30.07
2019-02-18T09:27:42.490Z,30.80
2019-02-18T09:30:12.223Z,29.37
2019-02-18T09:32:40.157Z,30.90
2019-02-18T09:35:08.572Z,35.30
2019-02-18T09:37:36.527Z,30.10
2019-02-18T09:40:04.746Z,35.27
2019-02-18T09:42:32.670Z,31.63
2019-02-18T09:45:01.740Z,28.90
2019-02-18T09:47:30.154Z,28.43
2019-02-18T09:49:58.093Z,29.10
2019-02-18T09:52:26.027Z,31.33
2019-02-18T09:54:56.034Z,29.00
2019-02-18T09:57:24.077Z,27.57
2019-02-18T09:59:52.024Z,29.43
2019-02-18T10:02:21.756Z,28.57
2019-02-18T10:04:49.756Z,25.10
2019-02-18T10:07:17.693Z,25.77
2019-02-18T10:09:45.826Z,26.27
2019-02-18T10:12:18.290Z,23.03
2019-02-18T10:14:44.619Z,27.27
2019-02-18T10:17:14.353Z,28.13
2019-02-18T10:19:43.341Z,24.93
2019-02-18T10:22:11.294Z,27.27
2019-02-18T10:24:50.222Z,26.37
2019-02-18T10:27:09.947Z,28.03
2019-02-18T10:29:37.975Z,21.67
2019-02-18T10:32:05.933Z,25.63
2019-02-18T10:34:33.847Z,25.67
2019-02-18T10:37:01.860Z,24.43
2019-02-18T10:39:29.811Z,25.37
2019-02-18T10:41:57.777Z,25.00
2019-02-18T10:44:25.732Z,29.03
2019-02-18T10:46:53.684Z,23.07
2019-02-18T10:49:22.139Z,23.70
2019-02-18T10:51:53.281Z,27.10
2019-02-18T10:54:21.343Z,22.67
2019-02-18T10:56:50.491Z,23.23
2019-02-18T10:59:18.396Z,23.67
2019-02-18T11:01:46.342Z,22.83
2019-02-18T11:04:14.392Z,25.73
2019-02-18T11:06:42.347Z,24.00
2019-02-18T11:09:11.640Z,25.53
2019-02-18T11:11:39.619Z,23.83
2019-02-18T11:14:07.736Z,21.63
2019-02-18T11:16:35.978Z,25.53
2019-02-18T11:19:03.972Z,19.87
2019-02-18T11:21:32.292Z,24.47
2019-02-18T11:24:00.395Z,24.63
2019-02-18T11:26:28.311Z,21.63
2019-02-18T11:28:56.286Z,21.63
2019-02-18T11:31:26.350Z,22.30
2019-02-18T11:33:54.310Z,25.50
2019-02-18T11:36:22.377Z,20.23
2019-02-18T11:38:50.345Z,30.83
2019-02-18T11:41:27.039Z,37.40
2019-02-18T11:43:47.988Z,23.63
2019-02-18T11:46:16.347Z,20.77
2019-02-18T11:48:44.316Z,22.30
2019-02-18T11:51:13.826Z,23.50
2019-02-18T11:53:41.767Z,24.60
2019-02-18T11:56:09.698Z,23.33
2019-02-18T11:58:37.646Z,24.07
2019-02-18T12:01:06.074Z,27.03
2019-02-18T12:03:33.983Z,28.80
2019-02-18T12:06:01.952Z,27.00
2019-02-18T12:08:29.877Z,27.63
2019-02-18T12:10:57.808Z,23.53
2019-02-18T12:13:25.874Z,24.40
2019-02-18T12:15:56.718Z,19.03
2019-02-18T12:18:24.559Z,25.90
2019-02-18T12:20:52.549Z,19.40
2019-02-18T12:23:20.572Z,23.10
2019-02-18T12:25:48.533Z,20.37
2019-02-18T12:28:18.276Z,22.10
2019-02-18T12:30:46.219Z,21.70
2019-02-18T12:33:14.589Z,22.43
2019-02-18T12:35:44.108Z,18.50
2019-02-18T12:38:12.108Z,22.00
2019-02-18T12:40:40.082Z,22.07
2019-02-18T12:43:08.044Z,17.47
2019-02-18T12:45:37.778Z,23.73
2019-02-18T12:48:05.801Z,19.70
2019-02-18T12:50:34.308Z,25.53
2019-02-18T12:53:02.315Z,21.07
2019-02-18T12:55:30.444Z,19.37
2019-02-18T12:57:59.495Z,21.53
2019-02-18T13:00:29.646Z,18.33
2019-02-18T13:02:57.730Z,19.37
2019-02-18T13:05:25.751Z,17.67
2019-02-18T13:07:53.754Z,20.37
2019-02-18T13:10:22.129Z,19.40
2019-02-18T13:12:50.049Z,18.50
2019-02-18T13:15:18.013Z,20.20
2019-02-18T13:17:47.733Z,25.03
2019-02-18T13:20:15.777Z,18.73
2019-02-18T13:22:43.793Z,18.53
2019-02-18T13:25:11.774Z,19.17
2019-02-18T13:27:40.848Z,19.60
2019-02-18T13:30:11.176Z,22.57
2019-02-18T13:32:39.128Z,21.03
2019-02-18T13:35:07.219Z,19.47
2019-02-18T13:37:35.284Z,18.93
2019-02-18T13:40:04.250Z,27.87
2019-02-18T13:42:34.002Z,21.37
2019-02-18T13:45:06.529Z,19.30
2019-02-18T13:47:35.664Z,23.53
2019-02-18T13:50:04.925Z,23.47
2019-02-18T13:52:32.885Z,22.10
2019-02-18T13:55:02.007Z,21.37
2019-02-18T13:57:30.302Z,21.93
2019-02-18T13:59:58.561Z,20.77
2019-02-18T14:02:26.550Z,24.20
2019-02-18T14:04:54.579Z,19.53
2019-02-18T14:07:22.636Z,23.03
2019-02-18T14:09:50.768Z,18.97
2019-02-18T14:12:18.793Z,23.67
2019-02-18T14:14:46.785Z,24.77
2019-02-18T14:17:15.123Z,22.37
2019-02-18T14:19:43.828Z,25.40
2019-02-18T14:22:11.862Z,20.00
2019-02-18T14:24:39.910Z,21.30
2019-02-18T14:27:08.091Z,20.50
2019-02-18T14:29:36.097Z,21.77
2019-02-18T14:32:10.355Z,21.03
2019-02-18T14:34:38.350Z,22.13
2019-02-18T14:37:06.416Z,21.83
2019-02-18T14:39:34.447Z,22.13
2019-02-18T14:42:02.397Z,30.30
2019-02-18T14:44:30.527Z,19.63
2019-02-18T14:46:58.963Z,24.30
2019-02-18T14:49:26.995Z,20.77
2019-02-18T14:51:55.027Z,20.77
2019-02-18T14:54:23.147Z,20.90
2019-02-18T14:56:51.193Z,18.23
2019-02-18T14:59:22.045Z,21.40
2019-02-18T15:01:50.087Z,22.13
2019-02-18T15:04:18.803Z,24.47
2019-02-18T15:06:46.836Z,20.60
2019-02-18T15:09:15.217Z,22.73
2019-02-18T15:11:43.262Z,24.03
2019-02-18T15:14:11.282Z,19.90
2019-02-18T15:16:39.367Z,23.93
2019-02-18T15:19:08.060Z,18.87
2019-02-18T15:21:36.114Z,20.73
2019-02-18T15:24:04.193Z,23.23
2019-02-18T15:26:32.244Z,18.53
2019-02-18T15:29:00.461Z,18.87
2019-02-18T15:31:29.558Z,20.67
2019-02-18T15:33:57.717Z,21.77
2019-02-18T15:36:26.184Z,22.33
2019-02-18T15:38:55.747Z,21.03
2019-02-18T15:41:23.833Z,24.83
2019-02-18T15:43:51.839Z,21.27
2019-02-18T15:46:20.526Z,26.73
2019-02-18T15:48:48.784Z,20.37
2019-02-18T15:51:17.198Z,27.73
2019-02-18T15:53:45.332Z,21.50
2019-02-18T15:56:13.547Z,24.97
2019-02-18T15:58:41.677Z,21.03
2019-02-18T16:01:09.792Z,22.43
2019-02-18T16:03:37.911Z,21.17
2019-02-18T16:06:05.965Z,25.13
2019-02-18T16:08:34.381Z,27.80
2019-02-18T16:11:02.498Z,25.90
2019-02-18T16:13:30.646Z,19.63
2019-02-18T16:15:58.673Z,24.20
2019-02-18T16:18:29.009Z,22.63
2019-02-18T16:20:57.351Z,26.33
2019-02-18T16:23:25.731Z,28.50
2019-02-18T16:25:56.745Z,24.10
2019-02-18T16:28:24.887Z,23.83
2019-02-18T16:30:53.001Z,25.50
2019-02-18T16:33:21.894Z,28.90
2019-02-18T16:35:50.477Z,28.17
2019-02-18T16:38:18.572Z,23.67
2019-02-18T16:40:48.971Z,33.83
2019-02-18T16:43:17.554Z,26.70
2019-02-18T16:45:46.139Z,26.30
2019-02-18T16:48:14.846Z,28.73
2019-02-18T16:50:43.152Z,25.10
2019-02-18T16:53:11.135Z,26.67
2019-02-18T16:55:39.179Z,28.40
2019-02-18T16:58:07.316Z,23.67
2019-02-18T17:00:35.663Z,28.87
2019-02-18T17:03:03.778Z,26.40
2019-02-18T17:05:32.867Z,26.23
2019-02-18T17:08:00.940Z,30.17
2019-02-18T17:10:29.355Z,32.87
2019-02-18T17:12:57.372Z,29.73
2019-02-18T17:15:25.349Z,29.60
2019-02-18T17:17:53.912Z,36.10
2019-02-18T17:20:22.288Z,36.93
2019-02-18T17:22:50.413Z,31.80
2019-02-18T17:25:18.439Z,34.67
2019-02-18T17:27:46.746Z,35.83
2019-02-18T17:30:14.850Z,27.90
2019-02-18T17:32:43.004Z,27.50
2019-02-18T17:35:12.066Z,27.60
2019-02-18T17:37:40.261Z,28.20
2019-02-18T17:40:11.620Z,28.70
2019-02-18T17:42:40.066Z,26.90
2019-02-18T17:45:09.427Z,26.00
2019-02-18T17:47:37.503Z,29.57
2019-02-18T17:50:06.146Z,29.53
2019-02-18T17:52:34.161Z,35.83
2019-02-18T17:55:02.206Z,33.97
2019-02-18T17:57:30.234Z,34.73
2019-02-18T17:59:58.788Z,32.63
2019-02-18T18:02:27.310Z,31.57
2019-02-18T18:04:56.031Z,35.70
2019-02-18T18:07:24.617Z,32.83
2019-02-18T18:09:53.011Z,28.63
2019-02-18T18:12:21.798Z,31.03
2019-02-18T18:14:50.690Z,28.03
2019-02-18T18:17:19.439Z,26.63
2019-02-18T18:19:47.752Z,28.83
2019-02-18T18:22:16.206Z,23.20
2019-02-18T18:24:44.679Z,24.17
2019-02-18T18:27:13.347Z,25.50
2019-02-18T18:29:41.735Z,31.17
2019-02-18T18:32:10.412Z,25.90
2019-02-18T18:34:39.196Z,31.07
2019-02-18T18:37:08.190Z,29.17
2019-02-18T18:39:36.769Z,34.83
2019-02-18T18:42:05.356Z,30.87
2019-02-18T18:44:33.819Z,37.40
2019-02-18T18:47:02.518Z,39.53
2019-02-18T18:49:31.129Z,39.57
2019-02-18T18:52:00.072Z,37.40
2019-02-18T18:54:30.198Z,39.70
2019-02-18T18:56:58.583Z,37.07
2019-02-18T18:59:27.909Z,33.87
2019-02-18T19:01:56.683Z,40.90
2019-02-18T19:04:26.200Z,31.33
2019-02-18T19:06:54.421Z,32.00
2019-02-18T19:09:22.530Z,30.33
2019-02-18T19:11:51.512Z,28.47
2019-02-18T19:14:22.584Z,27.07
2019-02-18T19:16:51.739Z,28.13
2019-02-18T19:19:20.655Z,31.63
2019-02-18T19:21:49.215Z,28.37
2019-02-18T19:24:23.826Z,23.53
2019-02-18T19:26:52.275Z,28.23
2019-02-18T19:29:20.612Z,28.20
2019-02-18T19:31:48.743Z,31.17
2019-02-18T19:34:16.865Z,26.50
2019-02-18T19:36:45.004Z,27.73
2019-02-18T19:39:14.729Z,24.67
2019-02-18T19:41:42.843Z,25.07
2019-02-18T19:44:11.282Z,26.40
2019-02-18T19:46:39.492Z,27.23
2019-02-18T19:49:07.545Z,25.93
2019-02-18T19:51:35.713Z,28.27
2019-02-18T19:54:04.236Z,28.17
2019-02-18T19:56:33.972Z,26.70
2019-02-18T19:59:04.759Z,28.50
2019-02-18T20:01:32.985Z,25.80
2019-02-18T20:04:01.135Z,30.07
2019-02-18T20:06:29.239Z,28.73
2019-02-18T20:08:57.365Z,29.23
2019-02-18T20:11:25.437Z,30.00
2019-02-18T20:13:58.677Z,32.90
2019-02-18T20:16:23.283Z,30.73
2019-02-18T20:18:51.401Z,29.93
2019-02-18T20:21:19.522Z,29.87
2019-02-18T20:23:47.486Z,31.43
2019-02-18T20:26:16.882Z,29.50
2019-02-18T20:28:44.921Z,28.57
2019-02-18T20:31:13.328Z,31.47
2019-02-18T20:33:41.388Z,33.83
2019-02-18T20:36:09.438Z,28.10
2019-02-18T20:38:37.454Z,24.27
2019-02-18T20:41:05.555Z,32.70
2019-02-18T20:43:33.689Z,30.43
2019-02-18T20:46:02.246Z,29.97
2019-02-18T20:48:30.352Z,33.30
2019-02-18T20:50:58.425Z,29.87
2019-02-18T20:53:26.474Z,30.73
2019-02-18T20:55:54.862Z,27.17
2019-02-18T20:58:22.989Z,31.00
2019-02-18T21:00:51.098Z,31.83
2019-02-18T21:03:20.622Z,27.60
2019-02-18T21:05:48.791Z,29.53
2019-02-18T21:08:16.866Z,26.93
2019-02-18T21:10:44.848Z,26.37
2019-02-18T21:13:12.967Z,33.43
2019-02-18T21:15:40.962Z,29.80
2019-02-18T21:18:09.082Z,27.23
2019-02-18T21:20:40.098Z,29.77
2019-02-18T21:23:08.226Z,28.90
2019-02-18T21:25:36.457Z,39.63
2019-02-18T21:28:04.550Z,33.60
2019-02-18T21:30:32.926Z,26.30
2019-02-18T21:33:00.994Z,26.90
2019-02-18T21:35:29.056Z,29.17
2019-02-18T21:37:58.638Z,27.53
2019-02-18T21:40:26.724Z,32.10
2019-02-18T21:42:54.790Z,29.47
2019-02-18T21:45:23.316Z,25.07
2019-02-18T21:47:51.309Z,28.57
2019-02-18T21:50:19.900Z,24.43
2019-02-18T21:52:48.358Z,30.37
2019-02-18T21:55:16.367Z,30.23
2019-02-18T21:57:44.476Z,28.93
2019-02-18T22:00:28.215Z,29.83
2019-02-18T22:02:56.510Z,30.67
2019-02-18T22:05:27.698Z,33.80
2019-02-18T22:07:55.756Z,28.40
2019-02-18T22:10:23.853Z,29.17
2019-02-18T22:12:51.914Z,29.00
2019-02-18T22:15:19.928Z,25.50
2019-02-18T22:17:48.007Z,28.80
2019-02-18T22:20:16.494Z,30.63
2019-02-18T22:22:50.007Z,28.93
2019-02-18T22:25:19.941Z,33.30
2019-02-18T22:27:48.959Z,30.83
2019-02-18T22:30:17.032Z,26.07
2019-02-18T22:32:45.036Z,28.83
2019-02-18T22:35:13.496Z,31.87
2019-02-18T22:37:41.563Z,33.57
2019-02-18T22:40:09.569Z,30.97
2019-02-18T22:42:37.596Z,28.57
2019-02-18T22:45:05.721Z,29.13
2019-02-18T22:47:33.702Z,29.43
2019-02-18T22:50:02.022Z,32.73
2019-02-18T22:52:30.515Z,31.87
2019-02-18T22:54:58.526Z,26.47
2019-02-18T22:57:26.626Z,28.50
2019-02-18T22:59:54.683Z,27.30
2019-02-18T23:02:22.673Z,28.87
2019-02-18T23:04:50.636Z,31.03
2019-02-18T23:07:18.650Z,28.13
2019-02-18T23:09:46.670Z,29.13
2019-02-18T23:12:14.755Z,32.17
2019-02-18T23:14:50.119Z,31.70
2019-02-18T23:17:12.460Z,32.90
2019-02-18T23:19:40.494Z,29.13
2019-02-18T23:22:09.148Z,31.70
2019-02-18T23:24:37.207Z,30.47
2019-02-18T23:27:05.517Z,28.90
2019-02-18T23:29:33.633Z,28.53
2019-02-18T23:32:01.723Z,31.63
2019-02-18T23:34:29.738Z,35.23
2019-02-18T23:36:57.775Z,29.73
2019-02-18T23:39:26.766Z,32.23
2019-02-18T23:41:54.897Z,30.33
2019-02-18T23:44:22.992Z,31.23
2019-02-18T23:46:51.050Z,28.80
2019-02-18T23:49:18.996Z,30.50
2019-02-18T23:51:47.042Z,28.93
2019-02-18T23:54:15.035Z,28.83
2019-02-18T23:56:43.059Z,29.23
2019-02-18T23:59:11.030Z,28.60
